Aviation Digital Data Service (ADDS)

Output produced by METARs form (0548 UTC 07 December 2022)
found at http://www.aviationweather.gov/metar/data/
 
TAF EFJY 070522Z 0706/0806 20004KT 9999 BKN006 
     PROB30 0706/0709 7000 -FZDZ 
     BECMG 0711/0713 3000 -SN 
     TEMPO 0713/0806 2000
       
TAF EFHA 070522Z 0706/0715 22003KT 9999 OVC005 
     PROB40 0706/0709 4000 BR BKN004 
     TEMPO 0713/0715 6000 -SN
       
TAF EFTP 070522Z 0706/0806 28003KT 8000 BKN005 
     TEMPO 0706/0708 2500 BR BKN001 
     TEMPO 0711/0715 BKN015 
     BECMG 0715/0717 3000 -SN BKN010 
     TEMPO 0717/0806 2000 BKN008
       
TAF EFKU 070524Z 0706/0806 18010KT 9999 OVC006 
     TEMPO 0706/0709 6000 -FZDZSN 
     TEMPO 0709/0712 3000 -SN 
     BECMG 0712/0714 12006KT 4000 -SN 
     TEMPO 0714/0806 2500
       
TAF EFKI 070533Z 0706/0715 19006KT 9999 BKN008 
     TEMPO 0706/0708 2000 -SN SCT007 OVC030 
     TEMPO 0708/0715 7000 -SN
       
TAF EFSI 070533Z 0706/0715 16005KT 9999 SCT020
       
TAF EFTU 070525Z 0706/0806 VRB02KT CAVOK 
     BECMG 0715/0717 3000 -SN BKN012 
     BECMG 0717/0719 03010KT 
     TEMPO 0720/0806 2000 BKN008